createdAt,value
2016-12-04T00:00:40.800Z,1029.94
2016-12-04T00:01:50.823Z,1029.93
2016-12-04T00:03:00.231Z,1029.97
2016-12-04T00:04:10.559Z,1029.93
2016-12-04T00:05:20.960Z,1029.98
2016-12-04T00:06:31.057Z,1029.95
2016-12-04T00:07:40.801Z,1029.95
2016-12-04T00:08:51.236Z,1029.94
2016-12-04T00:10:01.601Z,1029.94
2016-12-04T00:11:11.914Z,1029.94
2016-12-04T00:12:22.262Z,1029.93
2016-12-04T00:13:32.685Z,1029.95
2016-12-04T00:14:42.391Z,1029.92
2016-12-04T00:15:52.211Z,1029.96
2016-12-04T00:17:02.611Z,1029.98
2016-12-04T00:18:12.321Z,1030.01
2016-12-04T00:19:22.372Z,1030.06
2016-12-04T00:20:32.694Z,1029.99
2016-12-04T00:21:42.112Z,1030.06
2016-12-04T00:22:52.508Z,1030.06
2016-12-04T00:24:02.558Z,1030.04
2016-12-04T00:25:12.649Z,1030.05
2016-12-04T00:26:22.734Z,1030.04
2016-12-04T00:27:32.781Z,1030.02
2016-12-04T00:28:43.136Z,1030.01
2016-12-04T00:29:53.465Z,1029.97
2016-12-04T00:31:03.599Z,1029.94
2016-12-04T00:32:13.948Z,1029.95
2016-12-04T00:33:23.761Z,1029.96
2016-12-04T00:34:33.770Z,1029.95
2016-12-04T00:35:43.862Z,1029.95
2016-12-04T00:36:53.905Z,1029.94
2016-12-04T00:38:04.345Z,1029.93
2016-12-04T00:39:14.671Z,1029.93
2016-12-04T00:40:25.011Z,1029.93
2016-12-04T00:41:35.401Z,1029.95
2016-12-04T00:42:45.720Z,1029.92
2016-12-04T00:43:55.538Z,1029.92
2016-12-04T00:45:05.869Z,1029.91
2016-12-04T00:46:16.304Z,1029.9
2016-12-04T00:47:26.021Z,1029.9
2016-12-04T00:48:36.029Z,1029.86
2016-12-04T00:49:46.071Z,1029.84
2016-12-04T00:50:55.778Z,1029.82
2016-12-04T00:52:06.133Z,1029.82
2016-12-04T00:53:16.169Z,1029.85
2016-12-04T00:54:25.886Z,1029.86
2016-12-04T00:55:36.231Z,1029.85
2016-12-04T00:56:46.310Z,1029.82
2016-12-04T00:57:56.039Z,1029.83
2016-12-04T00:59:05.872Z,1029.81
2016-12-04T01:00:16.227Z,1029.81
2016-12-04T01:01:25.934Z,1029.8
2016-12-04T01:02:36.320Z,1029.81
2016-12-04T01:03:46.400Z,1029.76
2016-12-04T01:04:56.421Z,1029.79
2016-12-04T01:06:06.762Z,1029.79
2016-12-04T01:07:17.102Z,1029.78
2016-12-04T01:08:27.136Z,1029.83
2016-12-04T01:09:36.962Z,1029.85
2016-12-04T01:10:47.259Z,1029.78
2016-12-04T01:11:56.755Z,1029.82
2016-12-04T01:13:06.521Z,1029.8
2016-12-04T01:14:16.523Z,1029.78
2016-12-04T01:15:26.619Z,1029.77
2016-12-04T01:16:36.944Z,1029.79
2016-12-04T01:17:47.001Z,1029.8
2016-12-04T01:18:56.740Z,1029.83
2016-12-04T01:20:07.069Z,1029.86
2016-12-04T01:21:17.407Z,1029.85
2016-12-04T01:22:27.427Z,1029.85
2016-12-04T01:23:37.562Z,1029.87
2016-12-04T01:24:47.567Z,1029.86
2016-12-04T01:25:57.591Z,1029.88
2016-12-04T01:27:07.603Z,1029.88
2016-12-04T01:28:17.345Z,1029.93
2016-12-04T01:29:27.723Z,1029.92
2016-12-04T01:30:37.779Z,1029.93
2016-12-04T01:31:47.799Z,1029.93
2016-12-04T01:32:57.508Z,1029.9
2016-12-04T01:34:07.837Z,1029.9
2016-12-04T01:35:17.881Z,1029.86
2016-12-04T01:36:28.229Z,1029.89
2016-12-04T01:37:38.295Z,1029.85
2016-12-04T01:38:48.622Z,1029.88
2016-12-04T01:39:58.957Z,1029.86
2016-12-04T01:41:08.648Z,1029.94
2016-12-04T01:42:18.673Z,1029.98
2016-12-04T01:43:28.685Z,1029.99
2016-12-04T01:44:38.673Z,1029.94
2016-12-04T01:45:48.690Z,1029.95
2016-12-04T01:46:58.717Z,1029.95
2016-12-04T01:48:08.411Z,1029.87
2016-12-04T01:49:18.738Z,1029.9
2016-12-04T01:50:29.061Z,1029.9
2016-12-04T01:51:39.392Z,1029.9
2016-12-04T01:52:48.799Z,1029.86
2016-12-04T01:53:59.114Z,1029.87
2016-12-04T01:55:09.432Z,1029.89
2016-12-04T01:56:19.512Z,1029.9
2016-12-04T01:57:29.612Z,1029.91
2016-12-04T01:58:39.940Z,1029.96
2016-12-04T01:59:49.976Z,1029.94
2016-12-04T02:00:59.995Z,1029.94
2016-12-04T02:02:10.020Z,1029.91
2016-12-04T02:03:20.045Z,1029.9
2016-12-04T02:04:30.513Z,1029.92
2016-12-04T02:05:40.230Z,1029.9
2016-12-04T02:06:49.959Z,1029.93
2016-12-04T02:08:00.280Z,1029.94
2016-12-04T02:09:10.616Z,1029.92
2016-12-04T02:10:20.963Z,1029.92
2016-12-04T02:11:30.683Z,1029.9
2016-12-04T02:12:40.429Z,1029.94
2016-12-04T02:13:50.441Z,1029.92
2016-12-04T02:15:00.772Z,1029.88
2016-12-04T02:16:11.104Z,1029.87
2016-12-04T02:17:21.157Z,1029.88
2016-12-04T02:18:31.611Z,1029.86
2016-12-04T02:19:41.934Z,1029.84
2016-12-04T02:20:51.950Z,1029.86
2016-12-04T02:22:02.022Z,1029.87
2016-12-04T02:23:12.352Z,1029.9
2016-12-04T02:24:22.368Z,1029.85
2016-12-04T02:25:32.681Z,1029.88
2016-12-04T02:26:43.076Z,1029.87
2016-12-04T02:27:52.886Z,1029.88
2016-12-04T02:29:02.618Z,1029.84
2016-12-04T02:30:12.421Z,1029.87
2016-12-04T02:31:22.152Z,1029.9
2016-12-04T02:32:32.141Z,1029.92
2016-12-04T02:33:42.476Z,1029.93
2016-12-04T02:34:52.802Z,1029.93
2016-12-04T02:36:02.832Z,1029.93
2016-12-04T02:37:12.538Z,1029.89
2016-12-04T02:38:22.608Z,1029.94
2016-12-04T02:39:32.314Z,1029.96
2016-12-04T02:40:42.022Z,1029.96
2016-12-04T02:41:51.746Z,1030
2016-12-04T02:43:01.949Z,1030.02
2016-12-04T02:44:11.968Z,1029.97
2016-12-04T02:45:22.406Z,1030.01
2016-12-04T02:46:32.579Z,1030.02
2016-12-04T02:47:42.660Z,1030.02
2016-12-04T02:48:53.108Z,1030
2016-12-04T02:50:03.438Z,1029.98
2016-12-04T02:51:13.438Z,1030.01
2016-12-04T02:52:23.452Z,1029.96
2016-12-04T02:53:33.605Z,1029.93
2016-12-04T02:54:43.349Z,1029.95
2016-12-04T02:55:53.379Z,1029.93
2016-12-04T02:57:03.376Z,1029.93
2016-12-04T02:58:13.391Z,1029.93
2016-12-04T02:59:22.904Z,1029.96
2016-12-04T03:00:33.032Z,1029.98
2016-12-04T03:01:43.070Z,1030
2016-12-04T03:02:52.541Z,1029.97
2016-12-04T03:04:03.014Z,1029.97
2016-12-04T03:05:12.806Z,1029.96
2016-12-04T03:06:22.811Z,1029.94
2016-12-04T03:07:32.832Z,1029.95
2016-12-04T03:08:42.235Z,1029.99
2016-12-04T03:09:52.550Z,1029.94
2016-12-04T03:11:02.905Z,1029.97
2016-12-04T03:12:12.318Z,1029.99
2016-12-04T03:13:22.455Z,1029.96
2016-12-04T03:14:32.156Z,1030.01
2016-12-04T03:15:42.154Z,1029.95
2016-12-04T03:16:51.245Z,1029.99
2016-12-04T03:18:01.266Z,1029.98
2016-12-04T03:19:11.613Z,1030
2016-12-04T03:20:20.826Z,1030.03
2016-12-04T03:21:30.599Z,1030.01
2016-12-04T03:22:40.320Z,1030.02
2016-12-04T03:23:50.039Z,1030.04
2016-12-04T03:25:00.117Z,1030.02
2016-12-04T03:26:10.133Z,1029.97
2016-12-04T03:27:20.287Z,1030.01
2016-12-04T03:28:30.333Z,1029.98
2016-12-04T03:29:40.042Z,1030.02
2016-12-04T03:30:50.042Z,1029.99
2016-12-04T03:32:00.118Z,1029.99
2016-12-04T03:33:10.141Z,1030
2016-12-04T03:34:20.539Z,1029.98
2016-12-04T03:35:29.931Z,1029.98
2016-12-04T03:36:39.657Z,1029.98
2016-12-04T03:37:50.096Z,1029.96
2016-12-04T03:39:00.134Z,1029.99
2016-12-04T03:40:10.145Z,1029.95
2016-12-04T03:41:19.550Z,1029.95
2016-12-04T03:42:29.574Z,1029.93
2016-12-04T03:43:39.873Z,1029.96
2016-12-04T03:44:49.572Z,1029.96
2016-12-04T03:45:58.966Z,1029.95
2016-12-04T03:47:08.966Z,1029.98
2016-12-04T03:48:18.991Z,1029.94
2016-12-04T03:49:28.085Z,1029.95
2016-12-04T03:50:38.410Z,1029.9
2016-12-04T03:51:47.788Z,1029.94
2016-12-04T03:52:57.553Z,1029.95
2016-12-04T03:54:07.573Z,1029.91
2016-12-04T03:55:18.031Z,1029.96
2016-12-04T03:56:27.469Z,1029.94
2016-12-04T03:57:37.483Z,1029.95
2016-12-04T03:58:47.197Z,1029.92
2016-12-04T03:59:57.208Z,1029.94
2016-12-04T04:01:06.966Z,1029.95
2016-12-04T04:02:16.997Z,1029.97
2016-12-04T04:03:27.333Z,1029.94
2016-12-04T04:04:37.469Z,1029.99
2016-12-04T04:05:46.250Z,1030.03
2016-12-04T04:06:56.258Z,1030.04
2016-12-04T04:08:06.373Z,1030.08
2016-12-04T04:09:16.417Z,1030.05
2016-12-04T04:10:26.424Z,1030.03
2016-12-04T04:11:36.816Z,1030.04
2016-12-04T04:12:47.151Z,1030.04
2016-12-04T04:13:56.838Z,1030.02
2016-12-04T04:15:06.243Z,1030.05
2016-12-04T04:16:16.246Z,1030.03
2016-12-04T04:17:26.425Z,1030.06
2016-12-04T04:18:35.831Z,1030.05
2016-12-04T04:19:45.532Z,1030.03
2016-12-04T04:20:55.318Z,1030.04
2016-12-04T04:22:05.337Z,1030.06
2016-12-04T04:23:15.398Z,1030
2016-12-04T04:24:25.116Z,1030.01
2016-12-04T04:25:35.577Z,1030.03
2016-12-04T04:26:45.961Z,1030.02
2016-12-04T04:27:56.299Z,1030.05
2016-12-04T04:29:06.350Z,1030.03
2016-12-04T04:30:16.116Z,1030.08
2016-12-04T04:31:26.169Z,1030.1
2016-12-04T04:32:36.372Z,1030.11
2016-12-04T04:33:46.777Z,1030.13
2016-12-04T04:34:56.803Z,1030.12
2016-12-04T04:36:06.503Z,1030.08
2016-12-04T04:37:16.827Z,1030.04
2016-12-04T04:38:26.694Z,1030.04
2016-12-04T04:39:36.128Z,1030.02
2016-12-04T04:40:46.050Z,1029.99
2016-12-04T04:41:56.376Z,1030.02
2016-12-04T04:43:06.459Z,1029.98
2016-12-04T04:44:16.446Z,1030.01
2016-12-04T04:45:26.168Z,1030
2016-12-04T04:46:36.250Z,1030.04
2016-12-04T04:47:46.582Z,1030.05
2016-12-04T04:48:56.914Z,1030.04
2016-12-04T04:50:06.916Z,1030.02
2016-12-04T04:51:16.634Z,1030.05
2016-12-04T04:52:26.658Z,1030.05
2016-12-04T04:53:36.046Z,1030.06
2016-12-04T04:54:46.376Z,1030.01
2016-12-04T04:55:56.078Z,1030.03
2016-12-04T04:57:06.392Z,1030.02
2016-12-04T04:58:16.499Z,1030.01
2016-12-04T04:59:26.587Z,1030.03
2016-12-04T05:00:36.587Z,1029.99
2016-12-04T05:01:47.027Z,1030.03
2016-12-04T05:02:57.355Z,1030.02
2016-12-04T05:04:07.384Z,1029.99
2016-12-04T05:05:17.635Z,1030.01
2016-12-04T05:06:27.043Z,1029.97
2016-12-04T05:07:37.097Z,1029.98
2016-12-04T05:08:47.462Z,1029.98
2016-12-04T05:09:57.790Z,1029.96
2016-12-04T05:11:07.548Z,1029.98
2016-12-04T05:12:17.307Z,1029.96
2016-12-04T05:13:27.642Z,1029.96
2016-12-04T05:14:37.677Z,1029.94
2016-12-04T05:15:47.749Z,1029.97
2016-12-04T05:16:57.352Z,1029.96
2016-12-04T05:18:07.362Z,1029.96
2016-12-04T05:19:17.361Z,1029.98
2016-12-04T05:20:27.055Z,1029.99
2016-12-04T05:21:36.479Z,1030
2016-12-04T05:22:46.794Z,1030.04
2016-12-04T05:23:57.130Z,1030
2016-12-04T05:25:07.258Z,1029.93
2016-12-04T05:26:17.586Z,1029.99
2016-12-04T05:27:27.613Z,1029.96
2016-12-04T05:28:37.476Z,1030
2016-12-04T05:29:47.807Z,1030.01
2016-12-04T05:30:58.313Z,1030.05
2016-12-04T05:32:08.336Z,1030.09
2016-12-04T05:33:18.337Z,1030.09
2016-12-04T05:34:28.403Z,1030.06
2016-12-04T05:35:38.351Z,1030.06
2016-12-04T05:36:48.780Z,1030.11
2016-12-04T05:37:58.469Z,1030.06
2016-12-04T05:39:08.592Z,1030.08
2016-12-04T05:40:18.597Z,1030.05
2016-12-04T05:41:28.929Z,1030.09
2016-12-04T05:42:38.922Z,1030.09
2016-12-04T05:43:49.269Z,1030.1
2016-12-04T05:44:59.296Z,1030.13
2016-12-04T05:46:09.308Z,1030.11
2016-12-04T05:47:19.642Z,1030.1
2016-12-04T05:48:30.096Z,1030.07
2016-12-04T05:49:40.426Z,1030.1
2016-12-04T05:50:50.128Z,1030.09
2016-12-04T05:51:59.867Z,1030.11
2016-12-04T05:53:10.186Z,1030.18
2016-12-04T05:54:19.876Z,1030.18
2016-12-04T05:55:29.967Z,1030.2
2016-12-04T05:56:39.669Z,1030.21
2016-12-04T05:57:49.387Z,1030.26
2016-12-04T05:58:59.418Z,1030.24
2016-12-04T06:00:09.448Z,1030.29
2016-12-04T06:01:19.206Z,1030.29
2016-12-04T06:02:28.900Z,1030.31
2016-12-04T06:03:38.612Z,1030.28
2016-12-04T06:04:48.942Z,1030.23
2016-12-04T06:05:58.739Z,1030.27
2016-12-04T06:07:08.771Z,1030.33
2016-12-04T06:08:19.114Z,1030.29
2016-12-04T06:09:29.429Z,1030.36
2016-12-04T06:10:39.848Z,1030.34
2016-12-04T06:11:49.883Z,1030.38
2016-12-04T06:12:59.291Z,1030.34
2016-12-04T06:14:09.600Z,1030.32
2016-12-04T06:15:19.336Z,1030.33
2016-12-04T06:16:29.341Z,1030.38
2016-12-04T06:17:39.043Z,1030.35
2016-12-04T06:18:48.786Z,1030.33
2016-12-04T06:19:58.933Z,1030.33
2016-12-04T06:21:08.980Z,1030.36
2016-12-04T06:22:18.984Z,1030.34
2016-12-04T06:23:28.989Z,1030.31
2016-12-04T06:24:39.300Z,1030.32
2016-12-04T06:25:49.366Z,1030.32
2016-12-04T06:26:59.441Z,1030.33
2016-12-04T06:28:09.468Z,1030.32
2016-12-04T06:29:19.167Z,1030.32
2016-12-04T06:30:28.903Z,1030.34
2016-12-04T06:31:38.906Z,1030.3
2016-12-04T06:32:48.983Z,1030.31
2016-12-04T06:33:59.432Z,1030.29
2016-12-04T06:35:08.920Z,1030.27
2016-12-04T06:36:18.448Z,1030.23
2016-12-04T06:37:28.761Z,1030.28
2016-12-04T06:38:38.458Z,1030.29
2016-12-04T06:39:48.412Z,1030.28
2016-12-04T06:40:58.427Z,1030.35
2016-12-04T06:42:08.158Z,1030.33
2016-12-04T06:43:17.854Z,1030.29
2016-12-04T06:44:27.882Z,1030.35
2016-12-04T06:45:37.584Z,1030.37
2016-12-04T06:46:47.090Z,1030.34
2016-12-04T06:47:56.907Z,1030.36
2016-12-04T06:49:06.015Z,1030.4
2016-12-04T06:50:15.869Z,1030.44
2016-12-04T06:51:25.888Z,1030.44
2016-12-04T06:52:35.839Z,1030.5
2016-12-04T06:53:44.988Z,1030.51
2016-12-04T06:54:55.106Z,1030.51
2016-12-04T06:56:04.492Z,1030.54
2016-12-04T06:57:14.498Z,1030.5
2016-12-04T06:58:24.514Z,1030.54
2016-12-04T06:59:34.526Z,1030.53
2016-12-04T07:00:44.562Z,1030.54
2016-12-04T07:01:55.003Z,1030.56
2016-12-04T07:03:04.730Z,1030.55
2016-12-04T07:04:14.746Z,1030.58
2016-12-04T07:05:24.130Z,1030.64
2016-12-04T07:06:33.851Z,1030.65
2016-12-04T07:07:43.346Z,1030.68
2016-12-04T07:08:53.652Z,1030.67
2016-12-04T07:10:04.021Z,1030.69
2016-12-04T07:11:14.413Z,1030.67
2016-12-04T07:12:23.799Z,1030.69
2016-12-04T07:13:33.872Z,1030.73
2016-12-04T07:14:43.897Z,1030.77
2016-12-04T07:15:53.973Z,1030.79
2016-12-04T07:17:03.388Z,1030.82
2016-12-04T07:18:12.478Z,1030.87
2016-12-04T07:19:22.176Z,1030.85
2016-12-04T07:20:32.215Z,1030.86
2016-12-04T07:21:41.941Z,1030.79
2016-12-04T07:22:51.709Z,1030.81
2016-12-04T07:24:01.408Z,1030.8
2016-12-04T07:25:11.213Z,1030.79
2016-12-04T07:26:21.633Z,1030.8
2016-12-04T07:27:31.766Z,1030.82
2016-12-04T07:28:42.091Z,1030.87
2016-12-04T07:29:52.431Z,1030.9
2016-12-04T07:31:02.218Z,1030.9
2016-12-04T07:32:12.247Z,1030.91
2016-12-04T07:33:22.317Z,1030.94
2016-12-04T07:34:32.017Z,1030.94
2016-12-04T07:35:42.396Z,1030.96
2016-12-04T07:36:52.719Z,1030.96
2016-12-04T07:38:02.778Z,1030.96
2016-12-04T07:39:12.884Z,1030.92
2016-12-04T07:40:22.925Z,1030.92
2016-12-04T07:41:33.254Z,1030.91
2016-12-04T07:42:43.258Z,1030.92
2016-12-04T07:43:53.395Z,1030.94
2016-12-04T07:45:03.419Z,1030.99
2016-12-04T07:46:13.485Z,1031
2016-12-04T07:47:23.899Z,1031
2016-12-04T07:48:33.591Z,1030.98
2016-12-04T07:49:43.228Z,1030.95
2016-12-04T07:50:53.745Z,1031.01
2016-12-04T07:52:04.240Z,1031.02
2016-12-04T07:53:14.456Z,1030.96
2016-12-04T07:54:24.480Z,1031.03
2016-12-04T07:55:34.598Z,1030.97
2016-12-04T07:56:44.912Z,1031.01
2016-12-04T07:57:55.259Z,1031.05
2016-12-04T07:59:05.284Z,1031.05
2016-12-04T08:00:15.357Z,1031.03
2016-12-04T08:01:25.069Z,1031.05
2016-12-04T08:02:35.098Z,1031.06
2016-12-04T08:03:45.119Z,1031.09
2016-12-04T08:04:55.149Z,1031.11
2016-12-04T08:06:05.172Z,1031.08
2016-12-04T08:07:15.492Z,1031.08
2016-12-04T08:08:25.510Z,1031.11
2016-12-04T08:09:35.865Z,1031.11
2016-12-04T08:10:45.255Z,1031.1
2016-12-04T08:11:55.289Z,1031.15
2016-12-04T08:13:05.348Z,1031.13
2016-12-04T08:14:15.402Z,1031.16
2016-12-04T08:15:25.830Z,1031.12
2016-12-04T08:16:36.008Z,1031.14
2016-12-04T08:17:46.580Z,1031.15
2016-12-04T08:18:56.951Z,1031.19
2016-12-04T08:20:07.062Z,1031.19
2016-12-04T08:21:17.118Z,1031.23
2016-12-04T08:22:27.414Z,1031.24
2016-12-04T08:23:37.736Z,1031.23
2016-12-04T08:24:48.209Z,1031.22
2016-12-04T08:25:58.530Z,1031.25
2016-12-04T08:27:08.821Z,1031.21
2016-12-04T08:28:18.740Z,1031.28
2016-12-04T08:29:28.523Z,1031.28
2016-12-04T08:30:38.848Z,1031.32
2016-12-04T08:31:49.316Z,1031.32
2016-12-04T08:33:00.116Z,1031.3
2016-12-04T08:34:10.124Z,1031.31
2016-12-04T08:35:20.341Z,1031.35
2016-12-04T08:36:33.875Z,1031.39
2016-12-04T08:37:44.410Z,1031.37
2016-12-04T08:38:54.441Z,1031.38
2016-12-04T08:40:04.454Z,1031.36
2016-12-04T08:41:14.595Z,1031.36
2016-12-04T08:42:24.705Z,1031.32
2016-12-04T08:43:34.430Z,1031.35
2016-12-04T08:44:44.138Z,1031.34
2016-12-04T08:45:54.222Z,1031.36
2016-12-04T08:47:04.671Z,1031.36
2016-12-04T08:48:14.693Z,1031.34
2016-12-04T08:49:24.093Z,1031.39
2016-12-04T08:50:34.463Z,1031.38
2016-12-04T08:51:44.637Z,1031.38
2016-12-04T08:52:54.959Z,1031.41
2016-12-04T08:54:04.673Z,1031.39
2016-12-04T08:55:14.699Z,1031.42
2016-12-04T08:56:24.712Z,1031.41
2016-12-04T08:57:34.433Z,1031.41
2016-12-04T08:58:44.455Z,1031.45
2016-12-04T08:59:54.815Z,1031.43
2016-12-04T09:01:05.169Z,1031.45
2016-12-04T09:02:14.936Z,1031.48
2016-12-04T09:03:24.710Z,1031.47
2016-12-04T09:04:34.430Z,1031.52
2016-12-04T09:05:44.175Z,1031.53
2016-12-04T09:06:54.303Z,1031.54
2016-12-04T09:08:04.369Z,1031.57
2016-12-04T09:09:14.705Z,1031.58
2016-12-04T09:10:24.722Z,1031.58
2016-12-04T09:11:34.734Z,1031.58
2016-12-04T09:12:45.084Z,1031.58
2016-12-04T09:13:54.924Z,1031.55
2016-12-04T09:15:05.270Z,1031.54
2016-12-04T09:16:15.345Z,1031.58
2016-12-04T09:17:25.463Z,1031.59
2016-12-04T09:18:35.199Z,1031.62
2016-12-04T09:19:44.956Z,1031.62
2016-12-04T09:20:55.007Z,1031.65
2016-12-04T09:22:05.369Z,1031.68
2016-12-04T09:23:15.183Z,1031.66
2016-12-04T09:24:25.228Z,1031.67
2016-12-04T09:25:35.251Z,1031.68
2016-12-04T09:26:45.600Z,1031.66
2016-12-04T09:27:55.666Z,1031.68
2016-12-04T09:29:05.688Z,1031.71
2016-12-04T09:30:15.727Z,1031.72
2016-12-04T09:31:25.772Z,1031.71
2016-12-04T09:32:36.199Z,1031.7
2016-12-04T09:33:46.225Z,1031.74
2016-12-04T09:34:56.262Z,1031.75
2016-12-04T09:36:06.728Z,1031.73
2016-12-04T09:37:16.857Z,1031.72
2016-12-04T09:38:27.252Z,1031.74
2016-12-04T09:39:37.591Z,1031.78
2016-12-04T09:40:47.923Z,1031.79
2016-12-04T09:41:57.944Z,1031.81
2016-12-04T09:43:07.963Z,1031.8
2016-12-04T09:44:17.367Z,1031.77
2016-12-04T09:45:27.379Z,1031.8
2016-12-04T09:46:37.780Z,1031.76
2016-12-04T09:47:48.114Z,1031.74
2016-12-04T09:48:58.152Z,1031.78
2016-12-04T09:50:08.182Z,1031.74
2016-12-04T09:51:17.365Z,1031.76
2016-12-04T09:52:27.528Z,1031.74
2016-12-04T09:53:37.842Z,1031.71
2016-12-04T09:54:48.194Z,1031.7
2016-12-04T09:55:57.900Z,1031.72
2016-12-04T09:57:07.984Z,1031.68
2016-12-04T09:58:18.023Z,1031.69
2016-12-04T09:59:28.391Z,1031.69
2016-12-04T10:00:38.722Z,1031.74
2016-12-04T10:01:48.765Z,1031.74
2016-12-04T10:02:58.802Z,1031.77
2016-12-04T10:04:09.146Z,1031.75
2016-12-04T10:05:19.169Z,1031.69
2016-12-04T10:06:29.558Z,1031.68
2016-12-04T10:07:39.800Z,1031.71
2016-12-04T10:08:49.826Z,1031.67
2016-12-04T10:09:59.951Z,1031.69
2016-12-04T10:11:09.778Z,1031.67
2016-12-04T10:12:20.199Z,1031.67
2016-12-04T10:13:30.226Z,1031.65
2016-12-04T10:14:40.271Z,1031.65
2016-12-04T10:15:49.981Z,1031.62
2016-12-04T10:17:00.701Z,1031.65
2016-12-04T10:18:10.408Z,1031.62
2016-12-04T10:19:20.741Z,1031.68
2016-12-04T10:20:30.172Z,1031.67
2016-12-04T10:21:39.932Z,1031.68
2016-12-04T10:22:50.279Z,1031.64
2016-12-04T10:24:00.360Z,1031.62
2016-12-04T10:25:10.405Z,1031.62
2016-12-04T10:26:20.513Z,1031.63
2016-12-04T10:27:30.223Z,1031.66
2016-12-04T10:28:39.951Z,1031.65
2016-12-04T10:29:50.313Z,1031.59
2016-12-04T10:31:00.023Z,1031.61
2016-12-04T10:32:10.080Z,1031.63
2016-12-04T10:33:20.263Z,1031.62
2016-12-04T10:34:30.059Z,1031.62
2016-12-04T10:35:39.784Z,1031.61
2016-12-04T10:36:50.227Z,1031.58
2016-12-04T10:38:00.256Z,1031.59
2016-12-04T10:39:10.340Z,1031.56
2016-12-04T10:40:20.065Z,1031.54
2016-12-04T10:41:29.835Z,1031.52
2016-12-04T10:42:39.868Z,1031.52
2016-12-04T10:43:50.273Z,1031.54
2016-12-04T10:45:00.624Z,1031.52
2016-12-04T10:46:10.728Z,1031.55
2016-12-04T10:47:20.745Z,1031.49
2016-12-04T10:48:30.795Z,1031.52
2016-12-04T10:49:40.858Z,1031.54
2016-12-04T10:50:50.893Z,1031.52
2016-12-04T10:52:00.613Z,1031.54
2016-12-04T10:53:10.734Z,1031.52
2016-12-04T10:54:20.179Z,1031.53
2016-12-04T10:55:30.545Z,1031.51
2016-12-04T10:56:41.122Z,1031.53
2016-12-04T10:57:51.132Z,1031.49
2016-12-04T10:59:00.862Z,1031.5
2016-12-04T11:00:10.597Z,1031.45
2016-12-04T11:01:21.557Z,1031.5
2016-12-04T11:02:33.527Z,1031.5
2016-12-04T11:03:44.355Z,1031.47
2016-12-04T11:04:54.742Z,1031.43
2016-12-04T11:06:04.984Z,1031.46
2016-12-04T11:07:14.763Z,1031.41
2016-12-04T11:08:25.303Z,1031.45
2016-12-04T11:09:35.645Z,1031.4
2016-12-04T11:10:45.664Z,1031.4
2016-12-04T11:11:55.781Z,1031.41
2016-12-04T11:13:05.205Z,1031.42
2016-12-04T11:14:15.548Z,1031.39
2016-12-04T11:15:25.589Z,1031.34
2016-12-04T11:16:35.618Z,1031.36
2016-12-04T11:17:45.951Z,1031.34
2016-12-04T11:18:55.687Z,1031.31
2016-12-04T11:20:05.404Z,1031.35
2016-12-04T11:21:15.123Z,1031.34
2016-12-04T11:22:25.151Z,1031.32
2016-12-04T11:23:35.071Z,1031.3
2016-12-04T11:24:45.406Z,1031.31
2016-12-04T11:25:55.452Z,1031.28
2016-12-04T11:27:05.481Z,1031.26
2016-12-04T11:28:15.192Z,1031.3
2016-12-04T11:29:25.425Z,1031.29
2016-12-04T11:30:35.471Z,1031.29
2016-12-04T11:31:45.804Z,1031.27
2016-12-04T11:32:56.220Z,1031.25
2016-12-04T11:34:06.574Z,1031.23
2016-12-04T11:35:16.577Z,1031.23
2016-12-04T11:36:26.951Z,1031.19
2016-12-04T11:37:36.772Z,1031.2
2016-12-04T11:38:47.107Z,1031.21
2016-12-04T11:39:57.155Z,1031.27
2016-12-04T11:41:06.853Z,1031.25
2016-12-04T11:42:16.989Z,1031.26
2016-12-04T11:43:27.620Z,1031.29
2016-12-04T11:44:37.670Z,1031.26
2016-12-04T11:45:48.173Z,1031.3
2016-12-04T11:46:57.892Z,1031.34
2016-12-04T11:48:08.284Z,1031.33
2016-12-04T11:49:18.756Z,1031.33
2016-12-04T11:50:28.799Z,1031.32
2016-12-04T11:51:38.835Z,1031.31
2016-12-04T11:52:49.159Z,1031.29
2016-12-04T11:53:59.501Z,1031.28
2016-12-04T11:55:09.541Z,1031.31
2016-12-04T11:56:19.264Z,1031.27
2016-12-04T11:57:30.122Z,1031.23
2016-12-04T11:58:41.374Z,1031.23
2016-12-04T11:59:51.761Z,1031.21
2016-12-04T12:01:02.113Z,1031.25
2016-12-04T12:02:12.201Z,1031.21
2016-12-04T12:03:22.241Z,1031.21
2016-12-04T12:04:32.727Z,1031.2
2016-12-04T12:05:42.918Z,1031.19
2016-12-04T12:06:53.213Z,1031.19
2016-12-04T12:08:03.545Z,1031.17
2016-12-04T12:09:13.887Z,1031.2
2016-12-04T12:10:23.603Z,1031.14
2016-12-04T12:11:33.632Z,1031.16
2016-12-04T12:12:43.705Z,1031.13
2016-12-04T12:13:54.044Z,1031.15
2016-12-04T12:15:04.398Z,1031.17
2016-12-04T12:16:13.852Z,1031.14
2016-12-04T12:17:24.273Z,1031.1
2016-12-04T12:18:34.313Z,1031.11
2016-12-04T12:19:43.409Z,1031.17
2016-12-04T12:20:53.515Z,1031.18
2016-12-04T12:22:03.022Z,1031.14
2016-12-04T12:23:13.364Z,1031.15
2016-12-04T12:24:23.088Z,1031.15
2016-12-04T12:25:32.811Z,1031.16
2016-12-04T12:26:43.360Z,1031.15
2016-12-04T12:27:53.701Z,1031.15
2016-12-04T12:29:03.462Z,1031.15
2016-12-04T12:30:13.355Z,1031.16
2016-12-04T12:31:23.526Z,1031.11
2016-12-04T12:32:33.860Z,1031.11
2016-12-04T12:33:44.321Z,1031.08
2016-12-04T12:34:54.030Z,1031.1
2016-12-04T12:36:04.076Z,1031.14
2016-12-04T12:37:13.820Z,1031.11
2016-12-04T12:38:24.222Z,1031.11
2016-12-04T12:39:34.453Z,1031.12
2016-12-04T12:40:44.844Z,1031.1
2016-12-04T12:41:55.022Z,1031.13
2016-12-04T12:43:04.422Z,1031.1
2016-12-04T12:44:13.823Z,1031.11
2016-12-04T12:45:23.561Z,1031.09
2016-12-04T12:46:33.608Z,1031.1
2016-12-04T12:47:43.123Z,1031.09
2016-12-04T12:48:52.821Z,1031.1
2016-12-04T12:50:02.866Z,1031.06
2016-12-04T12:51:12.630Z,1031.09
2016-12-04T12:52:23.070Z,1031.09
2016-12-04T12:53:33.640Z,1031.1
2016-12-04T12:54:43.393Z,1031.08
2016-12-04T12:55:53.748Z,1031.12
2016-12-04T12:57:04.055Z,1031.07
2016-12-04T12:58:13.890Z,1031.12
2016-12-04T12:59:24.282Z,1031.09
2016-12-04T13:00:34.608Z,1031.09
2016-12-04T13:01:44.364Z,1031.09
2016-12-04T13:02:54.074Z,1031.06
2016-12-04T13:04:04.080Z,1031.04
2016-12-04T13:05:13.819Z,1031.04
2016-12-04T13:06:23.917Z,1031.07
2016-12-04T13:07:33.943Z,1031.07
2016-12-04T13:08:44.282Z,1031.04
2016-12-04T13:09:53.996Z,1031.06
2016-12-04T13:11:03.884Z,1031.02
2016-12-04T13:12:13.987Z,1031.02
2016-12-04T13:13:23.710Z,1031.02
2016-12-04T13:14:33.429Z,1031.02
2016-12-04T13:15:43.873Z,1031
2016-12-04T13:16:53.942Z,1031
2016-12-04T13:18:04.001Z,1030.99
2016-12-04T13:19:14.102Z,1030.99
2016-12-04T13:20:23.841Z,1031.03
2016-12-04T13:21:33.879Z,1031.03
2016-12-04T13:22:44.032Z,1030.99
2016-12-04T13:23:54.063Z,1030.97
2016-12-04T13:25:03.775Z,1030.97
2016-12-04T13:26:13.601Z,1030.98
2016-12-04T13:27:23.910Z,1030.97
2016-12-04T13:28:33.322Z,1030.99
2016-12-04T13:29:43.549Z,1030.96
2016-12-04T13:30:53.981Z,1030.97
2016-12-04T13:32:04.013Z,1030.94
2016-12-04T13:33:14.359Z,1030.92
2016-12-04T13:34:24.395Z,1030.94
2016-12-04T13:35:34.158Z,1030.9
2016-12-04T13:36:44.216Z,1030.89
2016-12-04T13:37:54.231Z,1030.89
2016-12-04T13:39:04.578Z,1030.86
2016-12-04T13:40:14.595Z,1030.88
2016-12-04T13:41:24.966Z,1030.84
2016-12-04T13:42:34.739Z,1030.86
2016-12-04T13:43:44.787Z,1030.86
2016-12-04T13:44:55.162Z,1030.86
2016-12-04T13:46:05.486Z,1030.84
2016-12-04T13:47:15.835Z,1030.87
2016-12-04T13:48:26.516Z,1030.87
2016-12-04T13:49:36.886Z,1030.88
2016-12-04T13:50:46.966Z,1030.89
2016-12-04T13:51:56.701Z,1030.86
2016-12-04T13:53:06.743Z,1030.84
2016-12-04T13:54:16.831Z,1030.91
2016-12-04T13:55:26.580Z,1030.91
2016-12-04T13:56:36.917Z,1030.89
2016-12-04T13:57:46.978Z,1030.91
2016-12-04T13:58:57.056Z,1030.91
2016-12-04T14:00:06.770Z,1030.89
2016-12-04T14:01:16.794Z,1030.92
2016-12-04T14:02:27.116Z,1030.93
2016-12-04T14:03:36.538Z,1030.9
2016-12-04T14:04:46.673Z,1030.88
2016-12-04T14:05:57.169Z,1030.88
2016-12-04T14:07:07.206Z,1030.92
2016-12-04T14:08:17.638Z,1030.92
2016-12-04T14:09:27.958Z,1030.93
2016-12-04T14:10:38.291Z,1030.93